Airport View

Enter AWOS ICAO identifier for current METAR.

ex. KFNL

KRAW 100445Z AUTO 30004KT 10SM CLR A2996 RMK AO2

10 Jul 2020 04:49

Frequency: 118.325

Phone: 660-547-3761

Other Area AWOS: KGLY - KDMO - KSZL - KRCM

TAF KSZL 100300Z 1003/1109 34009KT 9999 FEW200 QNH2987INS BECMG 1021/1022 04009KT 9999 FEW060 FEW200 QNH2989INS TX32/1021Z TN21/1011Z